sensor_id;sensor_type;location;lat;lon;timestamp;pressure;altitude;pressure_sealevel;temperature;humidity
4415;BME280;2220;42.670;23.398;2023-04-02T00:00:15;92785.44;;;9.18;100.00
4415;BME280;2220;42.670;23.398;2023-04-02T00:07:56;92912.72;;;9.32;100.00
4415;BME280;2220;42.670;23.398;2023-04-02T00:13:21;92987.56;;;9.44;100.00
4415;BME280;2220;42.670;23.398;2023-04-02T00:15:49;93000.84;;;9.42;100.00
4415;BME280;2220;42.670;23.398;2023-04-02T00:18:18;93003.16;;;9.44;100.00
4415;BME280;2220;42.670;23.398;2023-04-02T00:21:07;93018.81;;;9.52;100.00
4415;BME280;2220;42.670;23.398;2023-04-02T00:23:37;92928.09;;;9.29;100.00
4415;BME280;2220;42.670;23.398;2023-04-02T00:28:50;92652.16;;;8.64;100.00
4415;BME280;2220;42.670;23.398;2023-04-02T00:31:17;92532.03;;;8.41;100.00
4415;BME280;2220;42.670;23.398;2023-04-02T00:33:44;92400.13;;;8.04;100.00
4415;BME280;2220;42.670;23.398;2023-04-02T00:36:11;92126.34;;;7.37;100.00
4415;BME280;2220;42.670;23.398;2023-04-02T00:38:36;91813.38;;;7.10;100.00
4415;BME280;2220;42.670;23.398;2023-04-02T00:41:04;91478.97;;;6.57;100.00
4415;BME280;2220;42.670;23.398;2023-04-02T00:43:34;91154.28;;;6.35;100.00
4415;BME280;2220;42.670;23.398;2023-04-02T00:46:03;90808.72;;;6.11;100.00
4415;BME280;2220;42.670;23.398;2023-04-02T00:53:38;90186.38;;;6.03;100.00
4415;BME280;2220;42.670;23.398;2023-04-02T00:56:13;90060.63;;;6.07;100.00
4415;BME280;2220;42.670;23.398;2023-04-02T00:58:41;89962.44;;;6.03;100.00
4415;BME280;2220;42.670;23.398;2023-04-02T01:01:19;89898.00;;;6.10;100.00
4415;BME280;2220;42.670;23.398;2023-04-02T01:03:57;89847.75;;;6.08;100.00
4415;BME280;2220;42.670;23.398;2023-04-02T01:06:27;89830.25;;;5.98;100.00
4415;BME280;2220;42.670;23.398;2023-04-02T01:14:54;89757.72;;;5.83;100.00
4415;BME280;2220;42.670;23.398;2023-04-02T01:25:04;89823.63;;;5.97;100.00
4415;BME280;2220;42.670;23.398;2023-04-02T01:27:45;89879.94;;;6.14;100.00
4415;BME280;2220;42.670;23.398;2023-04-02T01:30:14;89928.31;;;6.17;100.00
4415;BME280;2220;42.670;23.398;2023-04-02T01:32:41;90007.88;;;6.08;100.00
4415;BME280;2220;42.670;23.398;2023-04-02T01:35:08;89995.97;;;6.23;100.00
4415;BME280;2220;42.670;23.398;2023-04-02T01:37:52;90055.78;;;6.25;100.00
4415;BME280;2220;42.670;23.398;2023-04-02T01:40:58;90098.69;;;6.29;100.00
4415;BME280;2220;42.670;23.398;2023-04-02T01:43:39;90140.28;;;6.24;100.00
4415;BME280;2220;42.670;23.398;2023-04-02T01:46:43;90182.16;;;6.33;100.00
4415;BME280;2220;42.670;23.398;2023-04-02T01:49:20;90229.63;;;6.25;100.00
4415;BME280;2220;42.670;23.398;2023-04-02T01:51:51;90228.69;;;6.33;100.00
4415;BME280;2220;42.670;23.398;2023-04-02T01:54:18;90264.19;;;6.36;100.00
4415;BME280;2220;42.670;23.398;2023-04-02T01:56:44;90265.84;;;6.44;100.00
4415;BME280;2220;42.670;23.398;2023-04-02T01:59:12;90285.75;;;6.44;100.00
4415;BME280;2220;42.670;23.398;2023-04-02T02:04:24;90308.50;;;6.54;100.00
4415;BME280;2220;42.670;23.398;2023-04-02T02:06:50;90334.88;;;6.44;100.00
4415;BME280;2220;42.670;23.398;2023-04-02T02:09:25;90330.88;;;6.31;100.00
4415;BME280;2220;42.670;23.398;2023-04-02T02:11:51;90261.44;;;6.10;100.00
4415;BME280;2220;42.670;23.398;2023-04-02T02:14:21;90140.41;;;5.93;100.00
4415;BME280;2220;42.670;23.398;2023-04-02T02:16:47;90026.63;;;5.85;100.00
4415;BME280;2220;42.670;23.398;2023-04-02T02:19:30;89924.75;;;5.79;100.00
4415;BME280;2220;42.670;23.398;2023-04-02T02:22:41;89827.66;;;5.75;100.00
4415;BME280;2220;42.670;23.398;2023-04-02T02:25:02;89738.91;;;5.83;100.00
4415;BME280;2220;42.670;23.398;2023-04-02T02:27:50;89713.19;;;5.90;100.00
4415;BME280;2220;42.670;23.398;2023-04-02T02:30:58;89700.41;;;5.97;100.00
4415;BME280;2220;42.670;23.398;2023-04-02T02:33:42;89721.63;;;5.60;100.00
4415;BME280;2220;42.670;23.398;2023-04-02T02:36:23;89658.03;;;5.75;100.00
4415;BME280;2220;42.670;23.398;2023-04-02T02:38:57;89610.50;;;5.76;100.00
4415;BME280;2220;42.670;23.398;2023-04-02T02:41:29;89612.03;;;5.81;100.00
4415;BME280;2220;42.670;23.398;2023-04-02T02:46:26;89582.75;;;5.96;100.00
4415;BME280;2220;42.670;23.398;2023-04-02T02:48:54;89604.50;;;5.95;100.00
4415;BME280;2220;42.670;23.398;2023-04-02T02:51:28;89589.69;;;5.92;100.00
4415;BME280;2220;42.670;23.398;2023-04-02T02:53:59;89585.16;;;6.15;100.00
4415;BME280;2220;42.670;23.398;2023-04-02T02:56:27;89629.72;;;6.09;100.00
4415;BME280;2220;42.670;23.398;2023-04-02T02:58:55;89638.97;;;6.10;100.00
4415;BME280;2220;42.670;23.398;2023-04-02T03:01:20;89649.72;;;6.15;100.00
4415;BME280;2220;42.670;23.398;2023-04-02T03:03:46;89657.19;;;6.21;100.00
4415;BME280;2220;42.670;23.398;2023-04-02T03:06:15;89682.28;;;6.24;100.00
4415;BME280;2220;42.670;23.398;2023-04-02T03:08:44;89683.75;;;6.21;100.00
4415;BME280;2220;42.670;23.398;2023-04-02T03:11:34;89708.19;;;6.27;100.00
4415;BME280;2220;42.670;23.398;2023-04-02T03:14:17;89754.59;;;5.94;100.00
4415;BME280;2220;42.670;23.398;2023-04-02T03:16:48;89722.00;;;6.12;100.00
4415;BME280;2220;42.670;23.398;2023-04-02T03:19:28;89758.06;;;6.05;100.00
4415;BME280;2220;42.670;23.398;2023-04-02T03:22:13;89750.56;;;5.96;100.00
4415;BME280;2220;42.670;23.398;2023-04-02T03:24:48;89716.50;;;5.87;100.00
4415;BME280;2220;42.670;23.398;2023-04-02T03:27:33;89690.94;;;6.05;100.00
4415;BME280;2220;42.670;23.398;2023-04-02T03:32:44;89749.44;;;5.94;100.00
4415;BME280;2220;42.670;23.398;2023-04-02T03:35:22;89759.56;;;6.06;100.00
4415;BME280;2220;42.670;23.398;2023-04-02T03:37:59;89774.41;;;6.12;100.00
4415;BME280;2220;42.670;23.398;2023-04-02T03:40:27;89825.66;;;6.10;100.00
4415;BME280;2220;42.670;23.398;2023-04-02T03:43:02;89842.41;;;6.20;100.00
4415;BME280;2220;42.670;23.398;2023-04-02T03:45:34;89881.41;;;6.11;100.00
4415;BME280;2220;42.670;23.398;2023-04-02T03:53:53;89597.13;;;5.41;100.00
4415;BME280;2220;42.670;23.398;2023-04-02T03:56:30;89501.88;;;5.55;100.00
4415;BME280;2220;42.670;23.398;2023-04-02T04:02:06;89395.41;;;5.28;100.00
4415;BME280;2220;42.670;23.398;2023-04-02T04:04:39;89320.59;;;5.24;100.00
4415;BME280;2220;42.670;23.398;2023-04-02T04:07:10;89242.94;;;5.33;100.00
4415;BME280;2220;42.670;23.398;2023-04-02T04:09:37;89194.69;;;5.37;100.00
4415;BME280;2220;42.670;23.398;2023-04-02T04:12:17;89153.50;;;5.51;100.00
4415;BME280;2220;42.670;23.398;2023-04-02T04:14:51;89155.25;;;5.37;100.00
4415;BME280;2220;42.670;23.398;2023-04-02T04:20:17;89120.34;;;5.53;100.00
4415;BME280;2220;42.670;23.398;2023-04-02T04:22:47;89159.34;;;5.41;100.00
4415;BME280;2220;42.670;23.398;2023-04-02T04:25:28;89145.41;;;5.53;100.00
4415;BME280;2220;42.670;23.398;2023-04-02T04:28:12;89142.53;;;5.69;100.00
4415;BME280;2220;42.670;23.398;2023-04-02T04:31:00;89183.50;;;5.70;100.00
4415;BME280;2220;42.670;23.398;2023-04-02T04:33:32;89227.34;;;5.67;100.00
4415;BME280;2220;42.670;23.398;2023-04-02T04:36:05;89255.69;;;5.63;100.00
4415;BME280;2220;42.670;23.398;2023-04-02T04:38:41;89266.09;;;5.70;100.00
4415;BME280;2220;42.670;23.398;2023-04-02T04:41:15;89273.91;;;5.84;100.00
4415;BME280;2220;42.670;23.398;2023-04-02T04:43:53;89306.50;;;6.00;100.00
4415;BME280;2220;42.670;23.398;2023-04-02T04:46:37;89388.00;;;5.97;100.00
4415;BME280;2220;42.670;23.398;2023-04-02T04:49:19;89433.63;;;5.89;100.00
4415;BME280;2220;42.670;23.398;2023-04-02T04:51:53;89461.69;;;5.91;100.00
4415;BME280;2220;42.670;23.398;2023-04-02T04:54:23;89479.34;;;5.89;100.00
4415;BME280;2220;42.670;23.398;2023-04-02T04:57:02;89503.97;;;6.13;100.00
4415;BME280;2220;42.670;23.398;2023-04-02T04:59:33;89514.09;;;6.32;100.00
4415;BME280;2220;42.670;23.398;2023-04-02T05:02:09;89569.97;;;6.48;100.00
4415;BME280;2220;42.670;23.398;2023-04-02T05:04:39;89680.34;;;6.47;100.00
4415;BME280;2220;42.670;23.398;2023-04-02T05:10:06;89819.53;;;6.49;100.00
4415;BME280;2220;42.670;23.398;2023-04-02T05:12:37;89895.28;;;6.26;100.00
4415;BME280;2220;42.670;23.398;2023-04-02T05:15:32;89906.56;;;6.41;100.00
4415;BME280;2220;42.670;23.398;2023-04-02T05:20:59;90146.16;;;6.83;100.00
4415;BME280;2220;42.670;23.398;2023-04-02T05:23:33;90336.00;;;6.82;100.00
4415;BME280;2220;42.670;23.398;2023-04-02T05:26:15;90460.66;;;6.87;100.00
4415;BME280;2220;42.670;23.398;2023-04-02T05:31:22;90494.19;;;6.99;100.00
4415;BME280;2220;42.670;23.398;2023-04-02T05:33:50;90546.53;;;7.28;100.00
4415;BME280;2220;42.670;23.398;2023-04-02T05:36:26;90680.66;;;7.54;100.00
4415;BME280;2220;42.670;23.398;2023-04-02T05:38:55;90794.44;;;7.78;100.00
4415;BME280;2220;42.670;23.398;2023-04-02T05:44:24;91202.97;;;7.90;100.00
4415;BME280;2220;42.670;23.398;2023-04-02T05:47:01;91396.69;;;8.05;100.00
4415;BME280;2220;42.670;23.398;2023-04-02T05:52:05;91556.69;;;8.38;100.00
4415;BME280;2220;42.670;23.398;2023-04-02T05:54:38;91642.38;;;8.62;100.00
4415;BME280;2220;42.670;23.398;2023-04-02T05:57:12;91844.38;;;8.43;100.00
4415;BME280;2220;42.670;23.398;2023-04-02T05:59:46;91920.63;;;8.59;100.00
4415;BME280;2220;42.670;23.398;2023-04-02T06:02:24;92056.88;;;8.57;100.00
4415;BME280;2220;42.670;23.398;2023-04-02T06:04:58;92139.44;;;8.63;100.00
4415;BME280;2220;42.670;23.398;2023-04-02T06:07:42;92170.75;;;8.58;100.00
4415;BME280;2220;42.670;23.398;2023-04-02T06:10:20;92165.38;;;8.55;100.00
4415;BME280;2220;42.670;23.398;2023-04-02T06:12:56;92169.38;;;8.52;100.00
4415;BME280;2220;42.670;23.398;2023-04-02T06:15:24;92202.78;;;8.80;100.00
4415;BME280;2220;42.670;23.398;2023-04-02T06:20:19;92314.13;;;8.99;100.00
4415;BME280;2220;42.670;23.398;2023-04-02T06:22:52;92348.50;;;9.13;100.00
4415;BME280;2220;42.670;23.398;2023-04-02T06:25:29;92364.41;;;9.20;100.00
4415;BME280;2220;42.670;23.398;2023-04-02T06:27:59;92404.44;;;9.28;100.00
4415;BME280;2220;42.670;23.398;2023-04-02T06:30:34;92445.06;;;9.15;100.00
4415;BME280;2220;42.670;23.398;2023-04-02T06:33:02;92526.13;;;9.03;100.00
4415;BME280;2220;42.670;23.398;2023-04-02T06:35:28;92534.25;;;9.10;100.00
4415;BME280;2220;42.670;23.398;2023-04-02T06:37:56;92527.75;;;8.90;100.00
4415;BME280;2220;42.670;23.398;2023-04-02T06:42:59;92553.09;;;9.24;100.00
4415;BME280;2220;42.670;23.398;2023-04-02T06:45:33;92489.09;;;9.29;100.00
4415;BME280;2220;42.670;23.398;2023-04-02T06:48:02;92479.34;;;9.43;100.00
4415;BME280;2220;42.670;23.398;2023-04-02T06:53:05;92599.25;;;9.67;100.00
4415;BME280;2220;42.670;23.398;2023-04-02T06:58:21;92566.56;;;9.27;100.00
4415;BME280;2220;42.670;23.398;2023-04-02T07:00:47;92563.31;;;9.69;100.00
4415;BME280;2220;42.670;23.398;2023-04-02T07:03:24;92649.66;;;9.89;100.00
4415;BME280;2220;42.670;23.398;2023-04-02T07:05:50;92710.44;;;10.10;100.00
4415;BME280;2220;42.670;23.398;2023-04-02T07:08:16;92729.06;;;9.95;100.00
4415;BME280;2220;42.670;23.398;2023-04-02T07:10:41;92762.25;;;9.98;100.00
4415;BME280;2220;42.670;23.398;2023-04-02T07:13:13;92771.09;;;10.19;100.00
4415;BME280;2220;42.670;23.398;2023-04-02T07:15:39;92799.31;;;10.34;100.00
4415;BME280;2220;42.670;23.398;2023-04-02T07:18:05;92839.19;;;10.21;100.00
4415;BME280;2220;42.670;23.398;2023-04-02T07:20:34;92790.34;;;10.18;100.00
4415;BME280;2220;42.670;23.398;2023-04-02T07:23:02;92835.19;;;10.46;100.00
4415;BME280;2220;42.670;23.398;2023-04-02T07:25:28;92896.16;;;10.54;100.00
4415;BME280;2220;42.670;23.398;2023-04-02T07:27:54;92882.25;;;10.58;100.00
4415;BME280;2220;42.670;23.398;2023-04-02T07:30:20;92940.22;;;10.50;100.00
4415;BME280;2220;42.670;23.398;2023-04-02T07:32:46;92982.84;;;10.54;100.00
4415;BME280;2220;42.670;23.398;2023-04-02T07:35:12;92976.56;;;10.86;100.00
4415;BME280;2220;42.670;23.398;2023-04-02T07:37:38;93009.47;;;11.13;100.00
4415;BME280;2220;42.670;23.398;2023-04-02T07:40:15;93063.72;;;11.42;100.00
4415;BME280;2220;42.670;23.398;2023-04-02T07:42:41;93098.38;;;11.43;100.00
4415;BME280;2220;42.670;23.398;2023-04-02T07:45:07;93106.84;;;11.48;100.00
4415;BME280;2220;42.670;23.398;2023-04-02T07:47:32;93142.13;;;11.55;100.00
4415;BME280;2220;42.670;23.398;2023-04-02T07:49:58;93150.69;;;11.77;100.00
4415;BME280;2220;42.670;23.398;2023-04-02T07:52:23;93195.59;;;11.97;100.00
4415;BME280;2220;42.670;23.398;2023-04-02T07:54:48;93262.03;;;12.22;100.00
4415;BME280;2220;42.670;23.398;2023-04-02T07:57:14;93373.09;;;12.28;100.00
4415;BME280;2220;42.670;23.398;2023-04-02T07:59:39;93365.88;;;12.33;100.00
4415;BME280;2220;42.670;23.398;2023-04-02T08:02:05;93336.34;;;12.55;100.00
4415;BME280;2220;42.670;23.398;2023-04-02T08:04:31;93390.16;;;12.65;100.00
4415;BME280;2220;42.670;23.398;2023-04-02T08:06:56;93520.47;;;12.67;100.00
4415;BME280;2220;42.670;23.398;2023-04-02T08:09:21;93578.66;;;12.81;100.00
4415;BME280;2220;42.670;23.398;2023-04-02T08:11:47;93613.22;;;12.78;100.00
4415;BME280;2220;42.670;23.398;2023-04-02T08:14:13;93673.19;;;12.83;100.00
4415;BME280;2220;42.670;23.398;2023-04-02T08:16:46;93769.53;;;12.76;100.00
4415;BME280;2220;42.670;23.398;2023-04-02T08:19:12;93793.81;;;12.63;100.00
4415;BME280;2220;42.670;23.398;2023-04-02T08:21:38;93817.59;;;12.75;100.00
4415;BME280;2220;42.670;23.398;2023-04-02T08:24:03;93859.50;;;12.97;100.00
4415;BME280;2220;42.670;23.398;2023-04-02T08:26:29;93846.53;;;13.06;100.00
4415;BME280;2220;42.670;23.398;2023-04-02T08:28:54;93877.88;;;13.06;100.00
4415;BME280;2220;42.670;23.398;2023-04-02T08:31:19;93861.38;;;13.24;100.00
4415;BME280;2220;42.670;23.398;2023-04-02T08:33:45;93875.78;;;13.08;100.00
4415;BME280;2220;42.670;23.398;2023-04-02T08:36:15;93935.81;;;13.27;100.00
4415;BME280;2220;42.670;23.398;2023-04-02T08:38:41;93941.78;;;13.13;100.00
4415;BME280;2220;42.670;23.398;2023-04-02T08:41:08;93971.44;;;13.23;100.00
4415;BME280;2220;42.670;23.398;2023-04-02T08:46:50;93966.09;;;13.14;100.00
4415;BME280;2220;42.670;23.398;2023-04-02T08:49:31;93964.72;;;12.89;100.00
4415;BME280;2220;42.670;23.398;2023-04-02T08:51:59;93954.69;;;13.10;100.00
4415;BME280;2220;42.670;23.398;2023-04-02T08:54:34;93897.19;;;13.24;100.00
4415;BME280;2220;42.670;23.398;2023-04-02T08:57:26;93881.63;;;13.55;100.00
4415;BME280;2220;42.670;23.398;2023-04-02T09:00:04;93938.44;;;13.27;100.00
4415;BME280;2220;42.670;23.398;2023-04-02T09:02:43;93958.97;;;13.47;100.00
4415;BME280;2220;42.670;23.398;2023-04-02T09:05:17;93969.03;;;13.54;100.00
4415;BME280;2220;42.670;23.398;2023-04-02T09:07:46;93975.81;;;13.68;100.00
4415;BME280;2220;42.670;23.398;2023-04-02T09:10:17;93990.69;;;13.95;98.39
4415;BME280;2220;42.670;23.398;2023-04-02T09:12:45;93964.78;;;14.08;100.00
4415;BME280;2220;42.670;23.398;2023-04-02T09:15:16;94004.16;;;14.03;99.39
4415;BME280;2220;42.670;23.398;2023-04-02T09:17:45;93981.69;;;14.24;99.66
4415;BME280;2220;42.670;23.398;2023-04-02T09:22:41;93927.38;;;14.83;100.00
4415;BME280;2220;42.670;23.398;2023-04-02T09:25:14;93982.66;;;14.95;99.42
4415;BME280;2220;42.670;23.398;2023-04-02T09:27:41;93955.75;;;14.81;100.00
4415;BME280;2220;42.670;23.398;2023-04-02T09:35:11;93941.34;;;15.32;100.00
4415;BME280;2220;42.670;23.398;2023-04-02T09:37:38;93952.66;;;15.50;97.60
4415;BME280;2220;42.670;23.398;2023-04-02T09:40:23;93975.19;;;15.51;94.83
4415;BME280;2220;42.670;23.398;2023-04-02T09:43:23;93979.63;;;15.42;94.25
4415;BME280;2220;42.670;23.398;2023-04-02T09:48:34;94021.09;;;15.62;91.48
4415;BME280;2220;42.670;23.398;2023-04-02T09:51:14;94038.97;;;15.60;89.80
4415;BME280;2220;42.670;23.398;2023-04-02T09:53:45;94027.91;;;15.01;92.65
4415;BME280;2220;42.670;23.398;2023-04-02T09:56:24;94030.91;;;15.17;92.47
4415;BME280;2220;42.670;23.398;2023-04-02T09:59:10;94036.28;;;15.11;90.61
4415;BME280;2220;42.670;23.398;2023-04-02T10:01:43;94081.47;;;15.08;86.85
4415;BME280;2220;42.670;23.398;2023-04-02T10:04:35;94064.13;;;14.99;87.00
4415;BME280;2220;42.670;23.398;2023-04-02T10:07:02;94074.84;;;14.66;86.20
4415;BME280;2220;42.670;23.398;2023-04-02T10:09:36;94055.47;;;14.53;87.38
4415;BME280;2220;42.670;23.398;2023-04-02T10:12:05;94073.47;;;14.69;85.56
4415;BME280;2220;42.670;23.398;2023-04-02T10:14:37;94074.59;;;14.99;85.11
4415;BME280;2220;42.670;23.398;2023-04-02T10:19:41;94048.31;;;15.13;84.44
4415;BME280;2220;42.670;23.398;2023-04-02T10:22:17;94068.78;;;15.24;84.50
4415;BME280;2220;42.670;23.398;2023-04-02T10:24:44;94085.44;;;15.28;81.31
4415;BME280;2220;42.670;23.398;2023-04-02T10:30:10;94077.84;;;14.96;80.15
4415;BME280;2220;42.670;23.398;2023-04-02T10:32:56;94066.47;;;14.78;82.89
4415;BME280;2220;42.670;23.398;2023-04-02T10:46:40;94057.31;;;14.53;88.77
4415;BME280;2220;42.670;23.398;2023-04-02T10:57:26;94050.00;;;15.08;86.20
4415;BME280;2220;42.670;23.398;2023-04-02T11:05:46;94086.72;;;15.62;77.72
4415;BME280;2220;42.670;23.398;2023-04-02T11:10:49;94085.25;;;15.56;78.63
4415;BME280;2220;42.670;23.398;2023-04-02T11:13:23;94073.00;;;15.65;79.62
4415;BME280;2220;42.670;23.398;2023-04-02T11:15:51;94089.41;;;15.79;78.28
4415;BME280;2220;42.670;23.398;2023-04-02T11:18:30;94078.50;;;15.94;76.84
4415;BME280;2220;42.670;23.398;2023-04-02T11:23:55;94079.19;;;16.17;75.59
4415;BME280;2220;42.670;23.398;2023-04-02T11:29:11;94073.59;;;16.10;77.49
4415;BME280;2220;42.670;23.398;2023-04-02T11:31:38;94093.25;;;16.13;74.91
4415;BME280;2220;42.670;23.398;2023-04-02T11:34:03;94075.03;;;16.34;73.52
4415;BME280;2220;42.670;23.398;2023-04-02T11:44:43;94064.50;;;16.25;73.38
4415;BME280;2220;42.670;23.398;2023-04-02T11:47:21;94089.66;;;16.09;73.47
4415;BME280;2220;42.670;23.398;2023-04-02T11:52:34;94081.38;;;16.41;71.83
4415;BME280;2220;42.670;23.398;2023-04-02T11:55:26;94085.22;;;16.18;69.82
4415;BME280;2220;42.670;23.398;2023-04-02T12:01:14;94085.00;;;15.88;71.84
4415;BME280;2220;42.670;23.398;2023-04-02T12:09:21;94073.47;;;16.24;69.85
4415;BME280;2220;42.670;23.398;2023-04-02T12:11:52;94074.53;;;16.14;70.98
4415;BME280;2220;42.670;23.398;2023-04-02T12:17:16;94071.75;;;16.19;72.28
4415;BME280;2220;42.670;23.398;2023-04-02T12:19:48;94073.94;;;16.35;70.54
4415;BME280;2220;42.670;23.398;2023-04-02T12:22:19;94071.34;;;16.43;70.00
4415;BME280;2220;42.670;23.398;2023-04-02T12:24:46;94064.53;;;16.42;73.15
4415;BME280;2220;42.670;23.398;2023-04-02T12:27:21;94071.81;;;16.54;70.59
4415;BME280;2220;42.670;23.398;2023-04-02T12:29:51;94075.69;;;16.65;68.96
4415;BME280;2220;42.670;23.398;2023-04-02T12:32:25;94093.63;;;16.55;67.83
4415;BME280;2220;42.670;23.398;2023-04-02T12:34:52;94085.06;;;16.23;69.42
4415;BME280;2220;42.670;23.398;2023-04-02T12:37:24;94077.28;;;16.01;70.06
4415;BME280;2220;42.670;23.398;2023-04-02T12:42:34;94070.69;;;16.20;69.75
4415;BME280;2220;42.670;23.398;2023-04-02T12:45:01;94056.47;;;16.13;70.66
4415;BME280;2220;42.670;23.398;2023-04-02T12:47:28;94079.16;;;16.09;69.50
4415;BME280;2220;42.670;23.398;2023-04-02T12:49:55;94072.50;;;16.11;69.09
4415;BME280;2220;42.670;23.398;2023-04-02T12:52:23;94054.72;;;16.00;68.12
4415;BME280;2220;42.670;23.398;2023-04-02T12:55:00;94068.44;;;15.88;68.47
4415;BME280;2220;42.670;23.398;2023-04-02T12:59:56;94058.19;;;15.69;69.20
4415;BME280;2220;42.670;23.398;2023-04-02T13:02:41;94058.22;;;15.78;68.76
4415;BME280;2220;42.670;23.398;2023-04-02T13:05:08;94067.13;;;15.68;69.13
4415;BME280;2220;42.670;23.398;2023-04-02T13:07:34;94044.94;;;15.74;71.12
4415;BME280;2220;42.670;23.398;2023-04-02T13:10:02;94067.94;;;15.77;68.50
4415;BME280;2220;42.670;23.398;2023-04-02T13:12:39;94048.03;;;15.85;69.53
4415;BME280;2220;42.670;23.398;2023-04-02T13:15:27;94066.44;;;15.93;67.33
4415;BME280;2220;42.670;23.398;2023-04-02T13:18:12;94061.06;;;15.99;67.10
4415;BME280;2220;42.670;23.398;2023-04-02T13:25:47;94061.81;;;15.90;66.53
4415;BME280;2220;42.670;23.398;2023-04-02T13:28:12;94055.19;;;16.02;66.16
4415;BME280;2220;42.670;23.398;2023-04-02T13:30:38;94053.91;;;15.82;66.04
4415;BME280;2220;42.670;23.398;2023-04-02T13:33:03;94053.41;;;15.80;65.14
4415;BME280;2220;42.670;23.398;2023-04-02T13:35:29;94052.53;;;15.93;65.84
4415;BME280;2220;42.670;23.398;2023-04-02T13:37:55;94053.22;;;16.25;64.08
4415;BME280;2220;42.670;23.398;2023-04-02T13:40:20;94052.47;;;16.59;61.96
4415;BME280;2220;42.670;23.398;2023-04-02T13:42:47;94041.50;;;16.65;61.99
4415;BME280;2220;42.670;23.398;2023-04-02T13:47:45;94044.59;;;16.59;62.62
4415;BME280;2220;42.670;23.398;2023-04-02T13:50:16;94050.78;;;16.37;61.19
4415;BME280;2220;42.670;23.398;2023-04-02T13:52:42;94045.63;;;16.06;61.16
4415;BME280;2220;42.670;23.398;2023-04-02T13:55:07;94052.13;;;16.17;62.10
4415;BME280;2220;42.670;23.398;2023-04-02T13:57:34;94057.56;;;16.20;61.86
4415;BME280;2220;42.670;23.398;2023-04-02T14:00:01;94043.59;;;16.03;60.79
4415;BME280;2220;42.670;23.398;2023-04-02T14:02:27;94044.56;;;16.15;59.29
4415;BME280;2220;42.670;23.398;2023-04-02T14:08:10;94047.22;;;16.41;57.48
4415;BME280;2220;42.670;23.398;2023-04-02T14:19:33;94060.06;;;17.68;51.41
4415;BME280;2220;42.670;23.398;2023-04-02T14:35:44;94044.22;;;18.56;47.91
4415;BME280;2220;42.670;23.398;2023-04-02T14:38:37;94045.16;;;18.81;47.38
4415;BME280;2220;42.670;23.398;2023-04-02T14:41:16;94047.28;;;18.67;47.06
4415;BME280;2220;42.670;23.398;2023-04-02T14:43:50;94042.47;;;18.60;48.38
4415;BME280;2220;42.670;23.398;2023-04-02T14:46:17;94069.47;;;18.87;46.65
4415;BME280;2220;42.670;23.398;2023-04-02T14:48:56;94056.28;;;18.66;46.47
4415;BME280;2220;42.670;23.398;2023-04-02T14:51:33;94050.63;;;18.76;45.53
4415;BME280;2220;42.670;23.398;2023-04-02T14:56:35;94054.47;;;19.45;44.03
4415;BME280;2220;42.670;23.398;2023-04-02T15:02:33;94075.41;;;19.17;43.11
4415;BME280;2220;42.670;23.398;2023-04-02T15:10:32;94075.69;;;16.91;49.07
4415;BME280;2220;42.670;23.398;2023-04-02T15:13:03;94062.75;;;16.69;50.35
4415;BME280;2220;42.670;23.398;2023-04-02T15:15:51;94060.06;;;16.51;51.31
4415;BME280;2220;42.670;23.398;2023-04-02T15:18:18;94054.03;;;16.42;51.29
4415;BME280;2220;42.670;23.398;2023-04-02T15:24:03;94058.03;;;16.48;52.39
4415;BME280;2220;42.670;23.398;2023-04-02T15:29:23;94060.56;;;17.99;47.98
4415;BME280;2220;42.670;23.398;2023-04-02T15:31:53;94069.88;;;18.26;46.82
4415;BME280;2220;42.670;23.398;2023-04-02T15:34:43;94064.69;;;19.34;45.07
4415;BME280;2220;42.670;23.398;2023-04-02T15:37:23;94084.97;;;19.42;42.96
4415;BME280;2220;42.670;23.398;2023-04-02T15:40:00;94072.72;;;20.07;40.90
4415;BME280;2220;42.670;23.398;2023-04-02T15:42:29;94075.28;;;20.81;40.09
4415;BME280;2220;42.670;23.398;2023-04-02T15:56:20;94082.94;;;21.54;35.80
4415;BME280;2220;42.670;23.398;2023-04-02T16:09:25;94074.38;;;20.24;36.64
4415;BME280;2220;42.670;23.398;2023-04-02T16:12:11;94089.16;;;21.18;35.24
4415;BME280;2220;42.670;23.398;2023-04-02T16:14:38;94081.13;;;20.74;34.48
4415;BME280;2220;42.670;23.398;2023-04-02T16:17:13;94096.16;;;20.58;35.10
4415;BME280;2220;42.670;23.398;2023-04-02T16:19:45;94087.38;;;20.29;35.17
4415;BME280;2220;42.670;23.398;2023-04-02T16:22:28;94082.19;;;20.21;35.32
4415;BME280;2220;42.670;23.398;2023-04-02T16:25:18;94096.63;;;20.11;35.33
4415;BME280;2220;42.670;23.398;2023-04-02T16:28:14;94090.00;;;20.05;36.22
4415;BME280;2220;42.670;23.398;2023-04-02T16:47:15;94091.47;;;17.17;41.44
4415;BME280;2220;42.670;23.398;2023-04-02T17:01:04;94095.50;;;15.35;48.88
4415;BME280;2220;42.670;23.398;2023-04-02T17:06:26;94106.03;;;15.13;50.00
4415;BME280;2220;42.670;23.398;2023-04-02T17:09:04;94105.50;;;15.02;50.88
4415;BME280;2220;42.670;23.398;2023-04-02T17:11:39;94108.41;;;15.00;51.90
4415;BME280;2220;42.670;23.398;2023-04-02T17:14:26;94112.34;;;14.89;52.62
4415;BME280;2220;42.670;23.398;2023-04-02T17:17:02;94114.13;;;14.80;52.94
4415;BME280;2220;42.670;23.398;2023-04-02T17:19:31;94116.84;;;14.75;53.73
4415;BME280;2220;42.670;23.398;2023-04-02T17:22:00;94116.97;;;14.70;54.64
4415;BME280;2220;42.670;23.398;2023-04-02T17:24:29;94119.53;;;14.61;57.38
4415;BME280;2220;42.670;23.398;2023-04-02T17:29:48;94125.72;;;14.51;60.46
4415;BME280;2220;42.670;23.398;2023-04-02T17:32:26;94117.88;;;14.38;61.78
4415;BME280;2220;42.670;23.398;2023-04-02T17:34:55;94136.13;;;14.29;62.73
4415;BME280;2220;42.670;23.398;2023-04-02T17:42:46;94147.09;;;14.17;64.60
4415;BME280;2220;42.670;23.398;2023-04-02T17:47:58;94149.81;;;13.98;65.75
4415;BME280;2220;42.670;23.398;2023-04-02T17:50:44;94146.13;;;13.99;66.52
4415;BME280;2220;42.670;23.398;2023-04-02T17:55:57;94154.66;;;13.91;66.57
4415;BME280;2220;42.670;23.398;2023-04-02T18:01:25;94157.88;;;13.88;67.41
4415;BME280;2220;42.670;23.398;2023-04-02T18:06:40;94155.81;;;13.85;68.26
4415;BME280;2220;42.670;23.398;2023-04-02T18:15:26;94161.63;;;13.82;68.90
4415;BME280;2220;42.670;23.398;2023-04-02T18:18:19;94168.78;;;13.77;68.70
4415;BME280;2220;42.670;23.398;2023-04-02T18:29:39;94189.09;;;13.52;70.32